sensor_id;sensor_type;location;lat;lon;timestamp;temperature;humidity
65207;SHT31;58477;48.072;11.970;2023-11-21T00:01:52;5.76;93.35
65207;SHT31;58477;48.072;11.970;2023-11-21T00:04:17;5.67;93.42
65207;SHT31;58477;48.072;11.970;2023-11-21T00:06:43;5.66;93.46
65207;SHT31;58477;48.072;11.970;2023-11-21T00:09:12;5.65;93.66
65207;SHT31;58477;48.072;11.970;2023-11-21T00:11:38;5.66;93.24
65207;SHT31;58477;48.072;11.970;2023-11-21T00:14:04;5.65;93.51
65207;SHT31;58477;48.072;11.970;2023-11-21T00:16:29;5.69;93.76
65207;SHT31;58477;48.072;11.970;2023-11-21T00:18:54;5.85;93.65
65207;SHT31;58477;48.072;11.970;2023-11-21T00:21:20;5.86;93.62
65207;SHT31;58477;48.072;11.970;2023-11-21T00:23:45;6.00;93.43
65207;SHT31;58477;48.072;11.970;2023-11-21T00:26:11;6.05;93.54
65207;SHT31;58477;48.072;11.970;2023-11-21T00:28:36;6.09;94.30
65207;SHT31;58477;48.072;11.970;2023-11-21T00:31:02;6.07;94.70
65207;SHT31;58477;48.072;11.970;2023-11-21T00:33:27;6.03;95.24
65207;SHT31;58477;48.072;11.970;2023-11-21T00:35:53;6.00;95.52
65207;SHT31;58477;48.072;11.970;2023-11-21T00:38:18;6.00;95.70
65207;SHT31;58477;48.072;11.970;2023-11-21T00:40:45;5.93;95.80
65207;SHT31;58477;48.072;11.970;2023-11-21T00:43:11;5.93;95.57
65207;SHT31;58477;48.072;11.970;2023-11-21T00:45:36;5.79;96.12
65207;SHT31;58477;48.072;11.970;2023-11-21T00:48:02;5.58;96.71
65207;SHT31;58477;48.072;11.970;2023-11-21T00:50:30;5.42;96.80
65207;SHT31;58477;48.072;11.970;2023-11-21T00:52:55;5.15;97.29
65207;SHT31;58477;48.072;11.970;2023-11-21T00:55:21;4.94;97.69
65207;SHT31;58477;48.072;11.970;2023-11-21T00:57:47;5.04;97.68
65207;SHT31;58477;48.072;11.970;2023-11-21T01:00:13;4.95;97.80
65207;SHT31;58477;48.072;11.970;2023-11-21T01:02:43;5.10;97.78
65207;SHT31;58477;48.072;11.970;2023-11-21T01:05:10;5.30;96.74
65207;SHT31;58477;48.072;11.970;2023-11-21T01:07:36;5.25;96.61
65207;SHT31;58477;48.072;11.970;2023-11-21T01:10:03;5.35;96.69
65207;SHT31;58477;48.072;11.970;2023-11-21T01:12:31;5.34;96.09
65207;SHT31;58477;48.072;11.970;2023-11-21T01:14:57;5.31;96.64
65207;SHT31;58477;48.072;11.970;2023-11-21T01:17:25;5.39;96.13
65207;SHT31;58477;48.072;11.970;2023-11-21T01:19:50;5.46;95.77
65207;SHT31;58477;48.072;11.970;2023-11-21T01:22:16;5.35;96.17
65207;SHT31;58477;48.072;11.970;2023-11-21T01:24:43;5.38;96.04
65207;SHT31;58477;48.072;11.970;2023-11-21T01:27:10;5.21;96.52
65207;SHT31;58477;48.072;11.970;2023-11-21T01:29:36;5.21;96.50
65207;SHT31;58477;48.072;11.970;2023-11-21T01:32:02;5.05;97.02
65207;SHT31;58477;48.072;11.970;2023-11-21T01:34:28;4.92;97.44
65207;SHT31;58477;48.072;11.970;2023-11-21T01:36:54;4.80;97.83
65207;SHT31;58477;48.072;11.970;2023-11-21T01:39:19;4.69;98.13
65207;SHT31;58477;48.072;11.970;2023-11-21T01:41:50;4.66;98.54
65207;SHT31;58477;48.072;11.970;2023-11-21T01:44:15;4.54;98.55
65207;SHT31;58477;48.072;11.970;2023-11-21T01:46:42;4.54;98.86
65207;SHT31;58477;48.072;11.970;2023-11-21T01:49:09;4.52;99.06
65207;SHT31;58477;48.072;11.970;2023-11-21T01:51:36;4.52;99.23
65207;SHT31;58477;48.072;11.970;2023-11-21T01:54:02;4.54;99.36
65207;SHT31;58477;48.072;11.970;2023-11-21T01:56:30;4.59;99.26
65207;SHT31;58477;48.072;11.970;2023-11-21T01:58:57;4.67;99.16
65207;SHT31;58477;48.072;11.970;2023-11-21T02:01:22;4.74;99.16
65207;SHT31;58477;48.072;11.970;2023-11-21T02:03:48;4.77;98.95
65207;SHT31;58477;48.072;11.970;2023-11-21T02:06:13;4.79;98.67
65207;SHT31;58477;48.072;11.970;2023-11-21T02:08:39;4.77;98.52
65207;SHT31;58477;48.072;11.970;2023-11-21T02:11:05;4.80;98.46
65207;SHT31;58477;48.072;11.970;2023-11-21T02:13:31;4.84;98.39
65207;SHT31;58477;48.072;11.970;2023-11-21T02:15:57;4.83;98.07
65207;SHT31;58477;48.072;11.970;2023-11-21T02:18:23;4.83;98.09
65207;SHT31;58477;48.072;11.970;2023-11-21T02:20:48;4.87;98.01
65207;SHT31;58477;48.072;11.970;2023-11-21T02:23:14;4.90;97.86
65207;SHT31;58477;48.072;11.970;2023-11-21T02:25:39;5.01;97.34
65207;SHT31;58477;48.072;11.970;2023-11-21T02:28:07;5.01;97.56
65207;SHT31;58477;48.072;11.970;2023-11-21T02:30:33;5.18;96.91
65207;SHT31;58477;48.072;11.970;2023-11-21T02:33:00;5.14;97.56
65207;SHT31;58477;48.072;11.970;2023-11-21T02:35:26;5.11;97.37
65207;SHT31;58477;48.072;11.970;2023-11-21T02:37:52;5.11;97.40
65207;SHT31;58477;48.072;11.970;2023-11-21T02:40:18;5.04;97.42
65207;SHT31;58477;48.072;11.970;2023-11-21T02:42:48;4.98;98.17
65207;SHT31;58477;48.072;11.970;2023-11-21T02:45:18;4.92;98.27
65207;SHT31;58477;48.072;11.970;2023-11-21T02:47:46;4.88;98.71
65207;SHT31;58477;48.072;11.970;2023-11-21T02:50:11;5.01;97.79
65207;SHT31;58477;48.072;11.970;2023-11-21T02:52:37;5.02;98.03
65207;SHT31;58477;48.072;11.970;2023-11-21T02:55:03;5.07;98.40
65207;SHT31;58477;48.072;11.970;2023-11-21T02:57:28;5.10;98.30
65207;SHT31;58477;48.072;11.970;2023-11-21T02:59:54;5.28;97.32
65207;SHT31;58477;48.072;11.970;2023-11-21T03:02:20;5.30;97.90
65207;SHT31;58477;48.072;11.970;2023-11-21T03:04:46;5.32;97.95
65207;SHT31;58477;48.072;11.970;2023-11-21T03:07:13;5.54;97.36
65207;SHT31;58477;48.072;11.970;2023-11-21T03:09:38;5.67;97.45
65207;SHT31;58477;48.072;11.970;2023-11-21T03:12:05;5.76;97.21
65207;SHT31;58477;48.072;11.970;2023-11-21T03:14:30;5.87;97.14
65207;SHT31;58477;48.072;11.970;2023-11-21T03:16:57;5.90;97.20
65207;SHT31;58477;48.072;11.970;2023-11-21T03:19:22;5.87;97.82
65207;SHT31;58477;48.072;11.970;2023-11-21T03:21:48;5.83;98.21
65207;SHT31;58477;48.072;11.970;2023-11-21T03:24:14;5.85;98.50
65207;SHT31;58477;48.072;11.970;2023-11-21T03:26:44;5.80;98.80
65207;SHT31;58477;48.072;11.970;2023-11-21T03:29:10;5.82;99.45
65207;SHT31;58477;48.072;11.970;2023-11-21T03:31:36;5.77;99.20
65207;SHT31;58477;48.072;11.970;2023-11-21T03:34:01;5.73;98.92
65207;SHT31;58477;48.072;11.970;2023-11-21T03:36:27;5.80;97.14
65207;SHT31;58477;48.072;11.970;2023-11-21T03:38:52;5.76;98.29
65207;SHT31;58477;48.072;11.970;2023-11-21T03:41:18;5.67;99.62
65207;SHT31;58477;48.072;11.970;2023-11-21T03:43:43;5.65;99.91
65207;SHT31;58477;48.072;11.970;2023-11-21T03:46:12;5.67;99.41
65207;SHT31;58477;48.072;11.970;2023-11-21T03:48:38;5.65;99.47
65207;SHT31;58477;48.072;11.970;2023-11-21T03:51:03;5.63;99.79
65207;SHT31;58477;48.072;11.970;2023-11-21T03:53:29;5.65;99.99
65207;SHT31;58477;48.072;11.970;2023-11-21T03:55:54;5.63;99.99
65207;SHT31;58477;48.072;11.970;2023-11-21T03:58:20;5.60;99.99
65207;SHT31;58477;48.072;11.970;2023-11-21T04:00:47;5.69;99.71
65207;SHT31;58477;48.072;11.970;2023-11-21T04:03:14;5.67;99.99
65207;SHT31;58477;48.072;11.970;2023-11-21T04:05:39;5.63;99.99
65207;SHT31;58477;48.072;11.970;2023-11-21T04:08:04;5.58;99.99
65207;SHT31;58477;48.072;11.970;2023-11-21T04:10:30;5.66;99.99
65207;SHT31;58477;48.072;11.970;2023-11-21T04:12:55;5.58;99.99
65207;SHT31;58477;48.072;11.970;2023-11-21T04:15:21;5.65;99.90
65207;SHT31;58477;48.072;11.970;2023-11-21T04:17:46;5.67;99.92
65207;SHT31;58477;48.072;11.970;2023-11-21T04:20:12;5.60;99.99
65207;SHT31;58477;48.072;11.970;2023-11-21T04:22:41;5.58;99.99
65207;SHT31;58477;48.072;11.970;2023-11-21T04:25:14;5.52;99.99
65207;SHT31;58477;48.072;11.970;2023-11-21T04:27:40;5.60;99.99
65207;SHT31;58477;48.072;11.970;2023-11-21T04:30:06;5.59;99.99
65207;SHT31;58477;48.072;11.970;2023-11-21T04:32:32;5.58;99.99
65207;SHT31;58477;48.072;11.970;2023-11-21T04:34:57;5.49;99.99
65207;SHT31;58477;48.072;11.970;2023-11-21T04:37:23;5.51;99.99
65207;SHT31;58477;48.072;11.970;2023-11-21T04:39:48;5.58;99.61
65207;SHT31;58477;48.072;11.970;2023-11-21T04:42:14;5.54;99.99
65207;SHT31;58477;48.072;11.970;2023-11-21T04:44:39;5.59;99.66
65207;SHT31;58477;48.072;11.970;2023-11-21T04:47:06;5.60;99.79
65207;SHT31;58477;48.072;11.970;2023-11-21T04:49:33;5.72;99.48
65207;SHT31;58477;48.072;11.970;2023-11-21T04:51:58;5.73;99.36
65207;SHT31;58477;48.072;11.970;2023-11-21T04:54:24;5.72;99.55
65207;SHT31;58477;48.072;11.970;2023-11-21T04:56:49;5.63;99.97
65207;SHT31;58477;48.072;11.970;2023-11-21T04:59:14;5.69;99.86
65207;SHT31;58477;48.072;11.970;2023-11-21T05:01:40;5.79;99.65
65207;SHT31;58477;48.072;11.970;2023-11-21T05:04:05;5.82;99.32
65207;SHT31;58477;48.072;11.970;2023-11-21T05:06:31;5.86;99.04
65207;SHT31;58477;48.072;11.970;2023-11-21T05:08:58;5.90;98.78
65207;SHT31;58477;48.072;11.970;2023-11-21T05:11:27;5.93;98.81
65207;SHT31;58477;48.072;11.970;2023-11-21T05:13:54;5.95;98.67
65207;SHT31;58477;48.072;11.970;2023-11-21T05:16:21;5.96;98.66
65207;SHT31;58477;48.072;11.970;2023-11-21T05:18:47;5.96;98.65
65207;SHT31;58477;48.072;11.970;2023-11-21T05:21:13;6.03;97.75
65207;SHT31;58477;48.072;11.970;2023-11-21T05:23:38;6.05;98.36
65207;SHT31;58477;48.072;11.970;2023-11-21T05:26:04;6.02;98.48
65207;SHT31;58477;48.072;11.970;2023-11-21T05:28:29;5.97;98.47
65207;SHT31;58477;48.072;11.970;2023-11-21T05:30:55;6.00;98.67
65207;SHT31;58477;48.072;11.970;2023-11-21T05:33:21;5.97;98.86
65207;SHT31;58477;48.072;11.970;2023-11-21T05:35:46;5.92;99.06
65207;SHT31;58477;48.072;11.970;2023-11-21T05:38:14;5.89;99.30
65207;SHT31;58477;48.072;11.970;2023-11-21T05:40:39;5.92;99.20
65207;SHT31;58477;48.072;11.970;2023-11-21T05:43:06;5.89;99.14
65207;SHT31;58477;48.072;11.970;2023-11-21T05:45:32;5.87;99.20
65207;SHT31;58477;48.072;11.970;2023-11-21T05:48:00;5.87;99.10
65207;SHT31;58477;48.072;11.970;2023-11-21T05:50:25;5.86;99.31
65207;SHT31;58477;48.072;11.970;2023-11-21T05:52:50;5.87;99.25
65207;SHT31;58477;48.072;11.970;2023-11-21T05:55:16;5.92;98.84
65207;SHT31;58477;48.072;11.970;2023-11-21T05:57:43;5.92;98.91
65207;SHT31;58477;48.072;11.970;2023-11-21T06:00:13;5.95;98.70
65207;SHT31;58477;48.072;11.970;2023-11-21T06:02:43;5.86;98.94
65207;SHT31;58477;48.072;11.970;2023-11-21T06:05:09;5.89;99.07
65207;SHT31;58477;48.072;11.970;2023-11-21T06:07:35;5.87;98.88
65207;SHT31;58477;48.072;11.970;2023-11-21T06:10:07;5.79;99.61
65207;SHT31;58477;48.072;11.970;2023-11-21T06:12:37;5.82;99.35
65207;SHT31;58477;48.072;11.970;2023-11-21T06:15:04;5.80;99.37
65207;SHT31;58477;48.072;11.970;2023-11-21T06:17:39;5.75;99.99
65207;SHT31;58477;48.072;11.970;2023-11-21T06:20:06;5.82;98.87
65207;SHT31;58477;48.072;11.970;2023-11-21T06:22:36;5.77;99.35
65207;SHT31;58477;48.072;11.970;2023-11-21T06:25:02;5.76;99.49
65207;SHT31;58477;48.072;11.970;2023-11-21T06:27:31;5.72;99.79
65207;SHT31;58477;48.072;11.970;2023-11-21T06:29:57;5.67;99.99
65207;SHT31;58477;48.072;11.970;2023-11-21T06:32:22;5.62;99.99
65207;SHT31;58477;48.072;11.970;2023-11-21T06:34:48;5.58;99.99
65207;SHT31;58477;48.072;11.970;2023-11-21T06:37:15;5.63;99.99
65207;SHT31;58477;48.072;11.970;2023-11-21T06:39:40;5.58;99.99
65207;SHT31;58477;48.072;11.970;2023-11-21T06:42:06;5.63;99.99
65207;SHT31;58477;48.072;11.970;2023-11-21T06:44:32;5.62;99.99
65207;SHT31;58477;48.072;11.970;2023-11-21T06:46:58;5.67;99.67
65207;SHT31;58477;48.072;11.970;2023-11-21T06:49:24;5.66;99.87
65207;SHT31;58477;48.072;11.970;2023-11-21T06:51:50;5.60;99.99
65207;SHT31;58477;48.072;11.970;2023-11-21T06:54:15;5.66;99.99
65207;SHT31;58477;48.072;11.970;2023-11-21T06:56:40;5.65;99.99
65207;SHT31;58477;48.072;11.970;2023-11-21T06:59:06;5.70;99.99
65207;SHT31;58477;48.072;11.970;2023-11-21T07:01:31;5.70;99.83
65207;SHT31;58477;48.072;11.970;2023-11-21T07:04:04;5.72;99.99
65207;SHT31;58477;48.072;11.970;2023-11-21T07:06:30;5.75;99.99
65207;SHT31;58477;48.072;11.970;2023-11-21T07:08:56;5.72;99.99
65207;SHT31;58477;48.072;11.970;2023-11-21T07:11:22;5.75;99.99
65207;SHT31;58477;48.072;11.970;2023-11-21T07:13:47;5.85;99.99
65207;SHT31;58477;48.072;11.970;2023-11-21T07:16:13;5.80;99.63
65207;SHT31;58477;48.072;11.970;2023-11-21T07:18:40;5.87;99.36
65207;SHT31;58477;48.072;11.970;2023-11-21T07:21:05;5.89;99.35
65207;SHT31;58477;48.072;11.970;2023-11-21T07:23:31;5.87;99.18
65207;SHT31;58477;48.072;11.970;2023-11-21T07:25:56;5.85;99.67
65207;SHT31;58477;48.072;11.970;2023-11-21T07:28:24;5.87;99.56
65207;SHT31;58477;48.072;11.970;2023-11-21T07:30:51;5.85;99.69
65207;SHT31;58477;48.072;11.970;2023-11-21T07:33:16;5.87;99.43
65207;SHT31;58477;48.072;11.970;2023-11-21T07:35:42;5.90;99.60
65207;SHT31;58477;48.072;11.970;2023-11-21T07:38:08;5.93;99.12
65207;SHT31;58477;48.072;11.970;2023-11-21T07:40:33;6.00;98.44
65207;SHT31;58477;48.072;11.970;2023-11-21T07:42:59;5.97;98.81
65207;SHT31;58477;48.072;11.970;2023-11-21T07:45:24;6.03;98.61
65207;SHT31;58477;48.072;11.970;2023-11-21T07:47:53;5.99;98.72
65207;SHT31;58477;48.072;11.970;2023-11-21T07:50:19;6.02;98.63
65207;SHT31;58477;48.072;11.970;2023-11-21T07:52:45;6.09;98.27
65207;SHT31;58477;48.072;11.970;2023-11-21T07:55:11;6.02;98.51
65207;SHT31;58477;48.072;11.970;2023-11-21T07:57:37;6.03;98.32
65207;SHT31;58477;48.072;11.970;2023-11-21T08:00:04;5.92;98.55
65207;SHT31;58477;48.072;11.970;2023-11-21T08:02:39;5.87;98.84
65207;SHT31;58477;48.072;11.970;2023-11-21T08:05:05;5.85;98.76
65207;SHT31;58477;48.072;11.970;2023-11-21T08:07:33;5.86;98.63
65207;SHT31;58477;48.072;11.970;2023-11-21T08:09:58;5.90;98.37
65207;SHT31;58477;48.072;11.970;2023-11-21T08:12:23;5.89;98.66
65207;SHT31;58477;48.072;11.970;2023-11-21T08:14:49;5.92;98.45
65207;SHT31;58477;48.072;11.970;2023-11-21T08:17:15;6.16;98.18
65207;SHT31;58477;48.072;11.970;2023-11-21T08:19:41;6.29;97.72
65207;SHT31;58477;48.072;11.970;2023-11-21T08:22:06;6.51;97.18
65207;SHT31;58477;48.072;11.970;2023-11-21T08:24:33;6.78;96.56
65207;SHT31;58477;48.072;11.970;2023-11-21T08:26:58;7.09;96.05
65207;SHT31;58477;48.072;11.970;2023-11-21T08:29:24;7.16;95.16
65207;SHT31;58477;48.072;11.970;2023-11-21T08:31:49;7.29;94.82
65207;SHT31;58477;48.072;11.970;2023-11-21T08:34:14;7.43;94.42
65207;SHT31;58477;48.072;11.970;2023-11-21T08:36:44;7.50;94.40
65207;SHT31;58477;48.072;11.970;2023-11-21T08:39:09;7.28;94.59
65207;SHT31;58477;48.072;11.970;2023-11-21T08:41:35;7.19;94.93
65207;SHT31;58477;48.072;11.970;2023-11-21T08:44:02;7.33;94.62
65207;SHT31;58477;48.072;11.970;2023-11-21T08:46:32;7.40;95.18
65207;SHT31;58477;48.072;11.970;2023-11-21T08:49:01;7.36;95.01
65207;SHT31;58477;48.072;11.970;2023-11-21T08:51:26;7.45;94.44
65207;SHT31;58477;48.072;11.970;2023-11-21T08:53:52;7.49;93.53
65207;SHT31;58477;48.072;11.970;2023-11-21T08:56:18;7.49;94.10
65207;SHT31;58477;48.072;11.970;2023-11-21T08:58:45;7.52;94.62
65207;SHT31;58477;48.072;11.970;2023-11-21T09:01:12;7.38;94.44
65207;SHT31;58477;48.072;11.970;2023-11-21T09:03:38;7.42;94.72
65207;SHT31;58477;48.072;11.970;2023-11-21T09:06:03;7.35;94.21
65207;SHT31;58477;48.072;11.970;2023-11-21T09:08:30;7.35;94.18
65207;SHT31;58477;48.072;11.970;2023-11-21T09:10:55;7.33;93.60
65207;SHT31;58477;48.072;11.970;2023-11-21T09:13:21;7.36;93.54
65207;SHT31;58477;48.072;11.970;2023-11-21T09:15:46;7.26;94.06
65207;SHT31;58477;48.072;11.970;2023-11-21T09:18:14;7.46;94.37
65207;SHT31;58477;48.072;11.970;2023-11-21T09:20:43;7.59;93.53
65207;SHT31;58477;48.072;11.970;2023-11-21T09:23:09;7.56;93.16
65207;SHT31;58477;48.072;11.970;2023-11-21T09:25:35;7.43;94.30
65207;SHT31;58477;48.072;11.970;2023-11-21T09:28:00;7.62;93.69
65207;SHT31;58477;48.072;11.970;2023-11-21T09:30:25;7.59;93.06
65207;SHT31;58477;48.072;11.970;2023-11-21T09:32:51;7.67;93.12
65207;SHT31;58477;48.072;11.970;2023-11-21T09:35:17;7.84;93.48
65207;SHT31;58477;48.072;11.970;2023-11-21T09:37:45;7.55;92.14
65207;SHT31;58477;48.072;11.970;2023-11-21T09:40:11;7.72;92.43
65207;SHT31;58477;48.072;11.970;2023-11-21T09:42:40;7.87;92.16
65207;SHT31;58477;48.072;11.970;2023-11-21T09:45:18;8.05;92.10
65207;SHT31;58477;48.072;11.970;2023-11-21T09:47:47;7.66;92.44
65207;SHT31;58477;48.072;11.970;2023-11-21T09:50:16;7.77;92.77
65207;SHT31;58477;48.072;11.970;2023-11-21T09:52:57;7.93;92.73
65207;SHT31;58477;48.072;11.970;2023-11-21T09:55:26;7.76;92.76
65207;SHT31;58477;48.072;11.970;2023-11-21T09:57:53;7.74;92.41
65207;SHT31;58477;48.072;11.970;2023-11-21T10:00:19;7.77;92.26
65207;SHT31;58477;48.072;11.970;2023-11-21T10:02:49;7.65;92.15
65207;SHT31;58477;48.072;11.970;2023-11-21T10:05:16;7.90;92.37
65207;SHT31;58477;48.072;11.970;2023-11-21T10:07:43;7.83;92.05
65207;SHT31;58477;48.072;11.970;2023-11-21T10:10:10;7.94;92.31
65207;SHT31;58477;48.072;11.970;2023-11-21T10:12:36;7.86;92.08
65207;SHT31;58477;48.072;11.970;2023-11-21T10:15:03;7.93;92.21
65207;SHT31;58477;48.072;11.970;2023-11-21T10:17:36;7.91;92.26
65207;SHT31;58477;48.072;11.970;2023-11-21T10:20:09;8.08;92.34
65207;SHT31;58477;48.072;11.970;2023-11-21T10:22:40;8.05;91.79
65207;SHT31;58477;48.072;11.970;2023-11-21T10:25:10;8.00;91.99
65207;SHT31;58477;48.072;11.970;2023-11-21T10:27:36;8.05;91.78
65207;SHT31;58477;48.072;11.970;2023-11-21T10:30:04;8.07;91.70
65207;SHT31;58477;48.072;11.970;2023-11-21T10:32:30;8.01;92.35
65207;SHT31;58477;48.072;11.970;2023-11-21T10:34:59;7.93;92.21
65207;SHT31;58477;48.072;11.970;2023-11-21T10:37:34;8.05;92.33
65207;SHT31;58477;48.072;11.970;2023-11-21T10:40:00;8.15;91.74
65207;SHT31;58477;48.072;11.970;2023-11-21T10:42:26;8.14;91.98
65207;SHT31;58477;48.072;11.970;2023-11-21T10:44:53;8.49;91.44
65207;SHT31;58477;48.072;11.970;2023-11-21T10:47:19;8.41;91.61
65207;SHT31;58477;48.072;11.970;2023-11-21T10:49:48;8.31;91.82
65207;SHT31;58477;48.072;11.970;2023-11-21T10:52:14;8.33;91.77
65207;SHT31;58477;48.072;11.970;2023-11-21T10:54:43;8.52;91.47
65207;SHT31;58477;48.072;11.970;2023-11-21T10:57:10;8.30;91.42
65207;SHT31;58477;48.072;11.970;2023-11-21T10:59:36;8.52;91.30
65207;SHT31;58477;48.072;11.970;2023-11-21T11:02:12;8.55;90.59
65207;SHT31;58477;48.072;11.970;2023-11-21T11:04:47;8.41;90.70
65207;SHT31;58477;48.072;11.970;2023-11-21T11:07:14;8.54;91.74
65207;SHT31;58477;48.072;11.970;2023-11-21T11:09:41;8.41;91.05
65207;SHT31;58477;48.072;11.970;2023-11-21T11:12:08;8.73;90.35
65207;SHT31;58477;48.072;11.970;2023-11-21T11:14:35;8.82;89.35
65207;SHT31;58477;48.072;11.970;2023-11-21T11:17:01;9.02;89.31
65207;SHT31;58477;48.072;11.970;2023-11-21T11:19:27;8.98;88.93
65207;SHT31;58477;48.072;11.970;2023-11-21T11:22:08;8.78;88.86
65207;SHT31;58477;48.072;11.970;2023-11-21T11:27:40;8.83;89.84
65207;SHT31;58477;48.072;11.970;2023-11-21T11:38:23;9.30;87.60
65207;SHT31;58477;48.072;11.970;2023-11-21T11:40:53;9.09;87.75
65207;SHT31;58477;48.072;11.970;2023-11-21T11:43:26;9.09;87.74
65207;SHT31;58477;48.072;11.970;2023-11-21T11:45:56;8.82;88.44
65207;SHT31;58477;48.072;11.970;2023-11-21T11:48:22;8.69;90.25
65207;SHT31;58477;48.072;11.970;2023-11-21T11:51:10;8.76;89.33
65207;SHT31;58477;48.072;11.970;2023-11-21T11:53:47;8.88;89.06
65207;SHT31;58477;48.072;11.970;2023-11-21T11:56:31;8.62;89.44
65207;SHT31;58477;48.072;11.970;2023-11-21T11:59:00;8.62;90.22
65207;SHT31;58477;48.072;11.970;2023-11-21T12:01:28;8.69;89.50
65207;SHT31;58477;48.072;11.970;2023-11-21T12:06:51;8.58;90.11
65207;SHT31;58477;48.072;11.970;2023-11-21T12:09:19;8.64;90.00
65207;SHT31;58477;48.072;11.970;2023-11-21T12:11:46;8.61;89.99
65207;SHT31;58477;48.072;11.970;2023-11-21T12:14:12;8.48;90.19
65207;SHT31;58477;48.072;11.970;2023-11-21T12:16:39;8.45;90.04
65207;SHT31;58477;48.072;11.970;2023-11-21T12:19:04;8.61;90.54
65207;SHT31;58477;48.072;11.970;2023-11-21T12:21:30;8.75;89.78
65207;SHT31;58477;48.072;11.970;2023-11-21T12:23:57;8.80;89.55
65207;SHT31;58477;48.072;11.970;2023-11-21T12:26:26;8.82;89.50
65207;SHT31;58477;48.072;11.970;2023-11-21T12:28:52;9.27;88.77
65207;SHT31;58477;48.072;11.970;2023-11-21T12:31:23;9.36;87.89
65207;SHT31;58477;48.072;11.970;2023-11-21T12:33:49;9.87;88.13
65207;SHT31;58477;48.072;11.970;2023-11-21T12:36:15;9.94;87.49
65207;SHT31;58477;48.072;11.970;2023-11-21T12:38:41;9.94;86.98
65207;SHT31;58477;48.072;11.970;2023-11-21T12:41:07;9.76;86.75
65207;SHT31;58477;48.072;11.970;2023-11-21T12:43:33;9.63;86.44
65207;SHT31;58477;48.072;11.970;2023-11-21T12:46:07;9.29;87.90
65207;SHT31;58477;48.072;11.970;2023-11-21T12:48:37;9.13;87.49
65207;SHT31;58477;48.072;11.970;2023-11-21T12:51:05;9.34;87.53
65207;SHT31;58477;48.072;11.970;2023-11-21T12:53:32;9.40;87.77
65207;SHT31;58477;48.072;11.970;2023-11-21T12:56:07;9.71;87.06
65207;SHT31;58477;48.072;11.970;2023-11-21T12:58:38;9.60;86.01
65207;SHT31;58477;48.072;11.970;2023-11-21T13:01:07;9.81;87.09
65207;SHT31;58477;48.072;11.970;2023-11-21T13:03:46;9.74;86.62
65207;SHT31;58477;48.072;11.970;2023-11-21T13:06:14;9.50;89.05
65207;SHT31;58477;48.072;11.970;2023-11-21T13:08:40;9.39;91.15
65207;SHT31;58477;48.072;11.970;2023-11-21T13:11:05;9.05;92.91
65207;SHT31;58477;48.072;11.970;2023-11-21T13:13:31;8.79;93.12
65207;SHT31;58477;48.072;11.970;2023-11-21T13:16:00;8.49;93.63
65207;SHT31;58477;48.072;11.970;2023-11-21T13:18:27;8.24;95.05
65207;SHT31;58477;48.072;11.970;2023-11-21T13:20:54;8.11;96.36
65207;SHT31;58477;48.072;11.970;2023-11-21T13:23:20;7.86;96.31
65207;SHT31;58477;48.072;11.970;2023-11-21T13:25:46;7.65;96.51
65207;SHT31;58477;48.072;11.970;2023-11-21T13:28:13;7.52;97.47
65207;SHT31;58477;48.072;11.970;2023-11-21T13:30:40;7.46;97.01
65207;SHT31;58477;48.072;11.970;2023-11-21T13:33:07;7.38;96.44
65207;SHT31;58477;48.072;11.970;2023-11-21T13:35:37;7.33;96.83
65207;SHT31;58477;48.072;11.970;2023-11-21T13:38:17;7.33;97.52
65207;SHT31;58477;48.072;11.970;2023-11-21T13:40:48;7.15;97.60
65207;SHT31;58477;48.072;11.970;2023-11-21T13:43:21;7.05;98.52
65207;SHT31;58477;48.072;11.970;2023-11-21T13:45:48;6.96;98.58
65207;SHT31;58477;48.072;11.970;2023-11-21T13:48:17;6.98;99.55
65207;SHT31;58477;48.072;11.970;2023-11-21T13:50:51;7.12;98.98
65207;SHT31;58477;48.072;11.970;2023-11-21T13:53:34;7.20;99.09
65207;SHT31;58477;48.072;11.970;2023-11-21T13:56:02;7.23;97.65
65207;SHT31;58477;48.072;11.970;2023-11-21T13:58:28;7.38;97.74
65207;SHT31;58477;48.072;11.970;2023-11-21T14:01:12;7.43;97.59
65207;SHT31;58477;48.072;11.970;2023-11-21T14:03:50;7.42;97.39
65207;SHT31;58477;48.072;11.970;2023-11-21T14:06:22;7.55;96.76
65207;SHT31;58477;48.072;11.970;2023-11-21T14:08:52;7.62;96.86
65207;SHT31;58477;48.072;11.970;2023-11-21T14:11:22;7.38;96.35
65207;SHT31;58477;48.072;11.970;2023-11-21T14:13:48;7.45;96.12
65207;SHT31;58477;48.072;11.970;2023-11-21T14:16:14;7.36;96.99
65207;SHT31;58477;48.072;11.970;2023-11-21T14:18:42;7.58;97.46
65207;SHT31;58477;48.072;11.970;2023-11-21T14:21:21;7.74;97.20
65207;SHT31;58477;48.072;11.970;2023-11-21T14:23:47;7.77;97.25
65207;SHT31;58477;48.072;11.970;2023-11-21T14:26:13;7.82;96.06
65207;SHT31;58477;48.072;11.970;2023-11-21T14:28:40;7.83;95.25
65207;SHT31;58477;48.072;11.970;2023-11-21T14:31:07;7.66;95.96
65207;SHT31;58477;48.072;11.970;2023-11-21T14:33:33;7.49;96.00
65207;SHT31;58477;48.072;11.970;2023-11-21T14:35:58;7.32;97.10
65207;SHT31;58477;48.072;11.970;2023-11-21T14:38:24;7.23;97.84
65207;SHT31;58477;48.072;11.970;2023-11-21T14:40:49;7.25;97.88
65207;SHT31;58477;48.072;11.970;2023-11-21T14:43:15;6.99;97.62
65207;SHT31;58477;48.072;11.970;2023-11-21T14:45:41;6.89;97.88
65207;SHT31;58477;48.072;11.970;2023-11-21T14:48:06;6.71;98.74
65207;SHT31;58477;48.072;11.970;2023-11-21T14:50:34;6.67;98.78
65207;SHT31;58477;48.072;11.970;2023-11-21T14:53:03;6.67;98.63
65207;SHT31;58477;48.072;11.970;2023-11-21T14:55:32;6.58;98.90
65207;SHT31;58477;48.072;11.970;2023-11-21T14:58:04;6.58;98.75
65207;SHT31;58477;48.072;11.970;2023-11-21T15:00:30;6.57;99.22
65207;SHT31;58477;48.072;11.970;2023-11-21T15:03:16;6.54;99.11
65207;SHT31;58477;48.072;11.970;2023-11-21T15:06:06;6.58;99.44
65207;SHT31;58477;48.072;11.970;2023-11-21T15:08:55;6.57;99.82
65207;SHT31;58477;48.072;11.970;2023-11-21T15:11:32;6.58;99.78
65207;SHT31;58477;48.072;11.970;2023-11-21T15:13:58;6.65;99.07
65207;SHT31;58477;48.072;11.970;2023-11-21T15:16:25;6.57;99.80
65207;SHT31;58477;48.072;11.970;2023-11-21T15:18:52;6.31;99.99
65207;SHT31;58477;48.072;11.970;2023-11-21T15:21:19;6.36;99.99
65207;SHT31;58477;48.072;11.970;2023-11-21T15:23:46;6.30;99.99
65207;SHT31;58477;48.072;11.970;2023-11-21T15:26:12;6.37;99.99
65207;SHT31;58477;48.072;11.970;2023-11-21T15:28:38;6.36;99.99
65207;SHT31;58477;48.072;11.970;2023-11-21T15:31:03;6.37;99.99
65207;SHT31;58477;48.072;11.970;2023-11-21T15:33:29;6.33;99.99
65207;SHT31;58477;48.072;11.970;2023-11-21T15:35:55;6.24;99.99
65207;SHT31;58477;48.072;11.970;2023-11-21T15:38:20;6.33;99.99
65207;SHT31;58477;48.072;11.970;2023-11-21T15:40:47;6.34;99.99
65207;SHT31;58477;48.072;11.970;2023-11-21T15:43:12;6.29;99.99
65207;SHT31;58477;48.072;11.970;2023-11-21T15:45:38;6.29;99.99